Time;durP1;ratioP1;P1;durP2;ratioP2;P2;SDS_P1;SDS_P2;PMS_P1;PMS_P2;Temp;Humidity;BMP_temperature;BMP_pressure;BME280_temperature;BME280_humidity;BME280_pressure;Samples;Min_cycle;Max_cycle;Signal;HPM_P1;HPM_P2
2023/12/16 00:00:49;;;;;;;;;;;;;;;7.94;100.00;103739.97;5111009;28;19956;-45
2023/12/16 00:03:14;;;;;;;;;;;;;;;7.93;100.00;103738.25;5111732;28;20031;-43
2023/12/16 00:05:40;;;;;;;;;;;;;;;7.90;100.00;103743.81;5111753;28;19973;-44
2023/12/16 00:08:05;;;;;;;;;;;;;;;7.90;100.00;103746.47;5110600;28;20022;-44
2023/12/16 00:10:30;;;;;;;;;;;;;;;7.90;100.00;103741.13;5109861;28;19919;-42
2023/12/16 00:12:55;;;;;;;;;;;;;;;7.88;100.00;103740.34;5110760;28;20300;-43
2023/12/16 00:15:20;;;;;;;;;;;;;;;7.86;100.00;103732.38;5112077;28;19943;-43
2023/12/16 00:17:46;;;;;;;;;;;;;;;7.84;100.00;103731.59;5106684;28;19919;-45
2023/12/16 00:20:11;;;;;;;;;;;;;;;7.83;100.00;103735.25;5110189;28;19943;-43
2023/12/16 00:22:38;;;;;;;;;;;;;;;7.82;100.00;103738.91;5111231;28;20022;-43
2023/12/16 00:25:05;;;;;;;;;;;;;;;7.76;100.00;103733.03;5112365;28;19916;-43
2023/12/16 00:27:30;;;;;;;;;;;;;;;7.74;100.00;103727.78;5112480;28;20366;-43
2023/12/16 00:29:55;;;;;;;;;;;;;;;7.71;100.00;103744.03;5112147;28;20019;-42
2023/12/16 00:32:20;;;;;;;;;;;;;;;7.66;100.00;103741.66;5112099;28;19938;-42
2023/12/16 00:34:46;;;;;;;;;;;;;;;7.64;100.00;103731.97;5112039;28;19995;-44
2023/12/16 00:37:11;;;;;;;;;;;;;;;7.62;100.00;103736.56;5111330;28;20019;-44
2023/12/16 00:39:36;;;;;;;;;;;;;;;7.59;100.00;103736.75;5110827;28;19919;-43
2023/12/16 00:42:01;;;;;;;;;;;;;;;7.54;100.00;103744.19;5110832;28;19989;-42
2023/12/16 00:44:27;;;;;;;;;;;;;;;7.52;100.00;103736.22;5110628;28;19920;-43
2023/12/16 00:46:52;;;;;;;;;;;;;;;7.48;100.00;103735.56;5110215;28;20372;-43
2023/12/16 00:49:17;;;;;;;;;;;;;;;7.46;100.00;103739.28;5111342;28;20024;-42
2023/12/16 00:51:42;;;;;;;;;;;;;;;7.43;100.00;103734.97;5110022;28;20392;-43
2023/12/16 00:54:09;;;;;;;;;;;;;;;7.39;100.00;103733.41;5111463;28;20282;-44
2023/12/16 00:56:34;;;;;;;;;;;;;;;7.36;100.00;103732.72;5115378;28;19977;-42
2023/12/16 00:58:59;;;;;;;;;;;;;;;7.32;100.00;103728.47;5115174;28;19916;-44
2023/12/16 01:01:24;;;;;;;;;;;;;;;7.28;100.00;103735.84;5114790;28;19920;-43
2023/12/16 01:03:49;;;;;;;;;;;;;;;7.22;100.00;103739.75;5115643;28;19965;-42
2023/12/16 01:06:15;;;;;;;;;;;;;;;7.19;100.00;103736.41;5115714;28;19920;-44
2023/12/16 01:08:42;;;;;;;;;;;;;;;7.13;100.00;103737.59;5113818;28;20555;-43
2023/12/16 01:11:07;;;;;;;;;;;;;;;7.11;100.00;103734.16;5114570;28;19927;-43
2023/12/16 01:13:32;;;;;;;;;;;;;;;7.09;100.00;103730.69;5114944;28;19916;-43
2023/12/16 01:15:59;;;;;;;;;;;;;;;7.08;100.00;103730.78;5114717;28;20211;-42
2023/12/16 01:18:24;;;;;;;;;;;;;;;7.05;100.00;103729.13;5115547;28;20247;-42
2023/12/16 01:20:50;;;;;;;;;;;;;;;7.02;100.00;103745.38;5116778;28;20454;-44
2023/12/16 01:23:16;;;;;;;;;;;;;;;7.01;100.00;103736.50;5117487;28;19984;-42
2023/12/16 01:25:41;;;;;;;;;;;;;;;6.96;100.00;103733.22;5114669;27;19970;-43
2023/12/16 01:28:06;;;;;;;;;;;;;;;6.95;100.00;103730.59;5115570;28;19920;-41
2023/12/16 01:30:31;;;;;;;;;;;;;;;6.92;100.00;103728.09;5116346;28;19943;-43
2023/12/16 01:32:57;;;;;;;;;;;;;;;6.90;100.00;103730.00;5115205;28;19919;-42
2023/12/16 01:35:22;;;;;;;;;;;;;;;6.90;100.00;103736.25;5113788;28;19966;-43
2023/12/16 01:37:47;;;;;;;;;;;;;;;6.89;100.00;103734.50;5113803;28;19923;-42
2023/12/16 01:40:12;;;;;;;;;;;;;;;6.89;100.00;103729.16;5114340;28;20303;-42
2023/12/16 01:42:38;;;;;;;;;;;;;;;6.92;100.00;103741.50;5114075;28;20374;-42
2023/12/16 01:45:04;;;;;;;;;;;;;;;6.92;100.00;103742.34;5113885;28;19927;-41
2023/12/16 01:47:29;;;;;;;;;;;;;;;6.96;100.00;103737.72;5114267;28;20401;-42
2023/12/16 01:49:54;;;;;;;;;;;;;;;6.96;100.00;103738.56;5114099;28;19920;-42
2023/12/16 01:52:19;;;;;;;;;;;;;;;6.98;100.00;103734.00;5114197;28;20381;-42
2023/12/16 01:54:44;;;;;;;;;;;;;;;6.99;100.00;103729.50;5114987;28;19945;-42
2023/12/16 01:57:10;;;;;;;;;;;;;;;6.97;100.00;103734.94;5113558;28;20423;-44
2023/12/16 01:59:35;;;;;;;;;;;;;;;7.00;100.00;103725.84;5114137;28;20365;-41
2023/12/16 02:02:00;;;;;;;;;;;;;;;7.01;100.00;103735.63;5114062;28;20300;-42
2023/12/16 02:04:26;;;;;;;;;;;;;;;7.02;100.00;103735.53;5113865;28;19927;-42
2023/12/16 02:06:51;;;;;;;;;;;;;;;7.02;100.00;103732.84;5112480;28;19931;-43
2023/12/16 02:09:18;;;;;;;;;;;;;;;7.04;100.00;103738.13;5113399;28;19926;-43
2023/12/16 02:11:43;;;;;;;;;;;;;;;7.02;100.00;103730.19;5113511;28;19954;-42
2023/12/16 02:14:08;;;;;;;;;;;;;;;7.02;100.00;103732.84;5115318;28;20303;-43
2023/12/16 02:16:34;;;;;;;;;;;;;;;7.02;100.00;103738.22;5114565;28;19980;-43
2023/12/16 02:18:59;;;;;;;;;;;;;;;7.01;100.00;103738.31;5113920;28;19919;-43
2023/12/16 02:21:24;;;;;;;;;;;;;;;7.01;100.00;103739.16;5111763;28;20003;-45
2023/12/16 02:23:49;;;;;;;;;;;;;;;7.01;100.00;103732.97;5113022;28;19979;-42
2023/12/16 02:26:15;;;;;;;;;;;;;;;7.02;100.00;103723.97;5113789;28;19955;-43
2023/12/16 02:28:40;;;;;;;;;;;;;;;6.99;100.00;103725.00;5112858;28;19943;-42
2023/12/16 02:31:05;;;;;;;;;;;;;;;7.00;100.00;103740.13;5112784;28;20014;-44
2023/12/16 02:33:30;;;;;;;;;;;;;;;6.98;100.00;103738.50;5113629;28;20365;-43
2023/12/16 02:35:55;;;;;;;;;;;;;;;6.97;100.00;103739.44;5112616;28;19996;-43
2023/12/16 02:38:21;;;;;;;;;;;;;;;6.97;100.00;103742.97;5113416;28;19919;-42
2023/12/16 02:40:47;;;;;;;;;;;;;;;6.98;100.00;103749.22;5112692;28;19964;-43
2023/12/16 02:43:13;;;;;;;;;;;;;;;6.99;100.00;103745.56;5113252;28;19923;-43
2023/12/16 02:45:38;;;;;;;;;;;;;;;7.01;100.00;103741.00;5112089;28;19920;-43
2023/12/16 02:48:03;;;;;;;;;;;;;;;7.01;100.00;103744.53;5112969;28;20270;-42
2023/12/16 02:50:28;;;;;;;;;;;;;;;7.01;100.00;103730.28;5112532;28;20339;-41
2023/12/16 02:52:54;;;;;;;;;;;;;;;6.99;100.00;103737.53;5112120;28;19920;-42
2023/12/16 02:55:19;;;;;;;;;;;;;;;6.96;100.00;103725.19;5112782;28;20023;-45
2023/12/16 02:57:44;;;;;;;;;;;;;;;6.94;100.00;103721.72;5112510;28;19920;-44
2023/12/16 03:00:10;;;;;;;;;;;;;;;6.92;100.00;103722.75;5112966;28;20043;-44
2023/12/16 03:02:35;;;;;;;;;;;;;;;6.87;100.00;103725.69;5112722;27;20002;-42
2023/12/16 03:05:00;;;;;;;;;;;;;;;6.90;100.00;103730.00;5112346;28;19920;-42
2023/12/16 03:07:26;;;;;;;;;;;;;;;6.87;100.00;103736.41;5112781;28;19920;-42
2023/12/16 03:09:51;;;;;;;;;;;;;;;6.83;100.00;103734.84;5113015;28;19919;-41
2023/12/16 03:12:16;;;;;;;;;;;;;;;6.80;100.00;103732.34;5110789;28;19928;-43
2023/12/16 03:14:42;;;;;;;;;;;;;;;6.78;100.00;103728.91;5112463;28;20271;-43
2023/12/16 03:17:07;;;;;;;;;;;;;;;6.75;100.00;103726.41;5112679;28;20290;-43
2023/12/16 03:19:33;;;;;;;;;;;;;;;6.72;100.00;103732.78;5112553;28;20334;-43
2023/12/16 03:21:58;;;;;;;;;;;;;;;6.73;100.00;103733.66;5112688;28;19989;-43
2023/12/16 03:24:23;;;;;;;;;;;;;;;6.72;100.00;103737.28;5111088;28;20384;-43
2023/12/16 03:26:48;;;;;;;;;;;;;;;6.73;100.00;103739.00;5112359;28;19919;-42
2023/12/16 03:29:14;;;;;;;;;;;;;;;6.74;100.00;103752.31;5112070;28;19920;-42
2023/12/16 03:31:39;;;;;;;;;;;;;;;6.74;100.00;103756.78;5094565;28;20049;-42
2023/12/16 03:34:04;;;;;;;;;;;;;;;6.70;100.00;103761.44;5110392;28;19965;-43
2023/12/16 03:36:29;;;;;;;;;;;;;;;6.69;100.00;103757.06;5111960;28;19920;-43
2023/12/16 03:38:55;;;;;;;;;;;;;;;6.68;100.00;103757.13;5112135;28;20374;-44
2023/12/16 03:41:20;;;;;;;;;;;;;;;6.65;100.00;103752.81;5112290;28;19919;-42
2023/12/16 03:43:46;;;;;;;;;;;;;;;6.66;100.00;103748.31;5111804;28;19931;-43
2023/12/16 03:46:11;;;;;;;;;;;;;;;6.63;100.00;103749.34;5111979;28;19920;-43
2023/12/16 03:48:36;;;;;;;;;;;;;;;6.60;100.00;103754.88;5111739;28;19956;-43
2023/12/16 03:51:01;;;;;;;;;;;;;;;6.58;100.00;103751.41;5111752;28;19999;-42
2023/12/16 03:53:26;;;;;;;;;;;;;;;6.59;100.00;103742.44;5111981;28;19959;-42
2023/12/16 03:55:52;;;;;;;;;;;;;;;6.58;100.00;103746.94;5111611;28;20286;-43
2023/12/16 03:58:18;;;;;;;;;;;;;;;6.56;100.00;103737.28;5112127;28;19930;-42
2023/12/16 04:00:43;;;;;;;;;;;;;;;6.54;100.00;103740.00;5111865;28;20010;-42
2023/12/16 04:03:08;;;;;;;;;;;;;;;6.51;100.00;103744.69;5110712;28;20011;-43
2023/12/16 04:05:34;;;;;;;;;;;;;;;6.50;100.00;103740.25;5111570;28;19947;-43
2023/12/16 04:07:59;;;;;;;;;;;;;;;6.48;100.00;103739.50;5111522;28;20378;-43
2023/12/16 04:10:24;;;;;;;;;;;;;;;6.45;100.00;103743.22;5111595;28;20421;-44
2023/12/16 04:12:49;;;;;;;;;;;;;;;6.45;100.00;103736.97;5111923;28;20014;-42
2023/12/16 04:15:15;;;;;;;;;;;;;;;6.44;100.00;103733.44;5111466;28;19920;-43
2023/12/16 04:17:40;;;;;;;;;;;;;;;6.48;100.00;103734.16;5111217;28;20238;-42
2023/12/16 04:20:05;;;;;;;;;;;;;;;6.51;100.00;103723.28;5111733;28;20290;-42
2023/12/16 04:22:31;;;;;;;;;;;;;;;6.51;100.00;103725.94;5111288;28;20358;-42
2023/12/16 04:24:57;;;;;;;;;;;;;;;6.51;100.00;103723.28;5111298;28;19976;-42
2023/12/16 04:27:23;;;;;;;;;;;;;;;6.50;100.00;103721.53;5111718;28;20109;-43
2023/12/16 04:29:49;;;;;;;;;;;;;;;6.51;100.00;103729.50;5113414;28;20424;-42
2023/12/16 04:32:14;;;;;;;;;;;;;;;6.51;100.00;103728.63;5115829;28;19915;-42
2023/12/16 04:34:39;;;;;;;;;;;;;;;6.50;100.00;103732.22;5115033;28;19926;-42
2023/12/16 04:37:04;;;;;;;;;;;;;;;6.50;100.00;103726.88;5116050;28;19916;-42
2023/12/16 04:39:29;;;;;;;;;;;;;;;6.51;100.00;103729.50;5116024;28;20002;-44
2023/12/16 04:41:55;;;;;;;;;;;;;;;6.51;100.00;103729.50;5115499;28;20034;-43
2023/12/16 04:44:20;;;;;;;;;;;;;;;6.56;100.00;103732.78;5113964;28;19981;-42
2023/12/16 04:46:45;;;;;;;;;;;;;;;6.54;100.00;103732.00;5115694;28;19957;-41
2023/12/16 04:49:11;;;;;;;;;;;;;;;6.54;100.00;103721.28;5113741;28;19930;-44
2023/12/16 04:51:37;;;;;;;;;;;;;;;6.53;100.00;103722.25;5113580;28;19919;-44
2023/12/16 04:54:02;;;;;;;;;;;;;;;6.52;100.00;103731.19;5113583;28;19920;-43
2023/12/16 04:56:27;;;;;;;;;;;;;;;6.52;100.00;103725.84;5113234;28;20015;-43
2023/12/16 04:58:53;;;;;;;;;;;;;;;6.50;100.00;103735.81;5113474;28;20293;-43
2023/12/16 05:01:18;;;;;;;;;;;;;;;6.52;100.00;103735.69;5113422;28;20312;-42
2023/12/16 05:03:43;;;;;;;;;;;;;;;6.50;100.00;103742.94;5113135;28;20275;-41
2023/12/16 05:06:08;;;;;;;;;;;;;;;6.50;100.00;103742.94;5113760;28;19920;-42
2023/12/16 05:08:34;;;;;;;;;;;;;;;6.51;100.00;103736.66;5113219;28;19923;-44
2023/12/16 05:10:59;;;;;;;;;;;;;;;6.51;100.00;103739.34;5109980;28;19924;-43
2023/12/16 05:13:24;;;;;;;;;;;;;;;6.50;100.00;103746.50;5113723;28;19924;-43
2023/12/16 05:15:51;;;;;;;;;;;;;;;6.51;100.00;103750.91;5112767;28;20000;-42
2023/12/16 05:18:16;;;;;;;;;;;;;;;6.54;100.00;103749.88;5114203;28;20035;-44
2023/12/16 05:20:41;;;;;;;;;;;;;;;6.57;100.00;103738.97;5113153;28;20018;-43
2023/12/16 05:23:07;;;;;;;;;;;;;;;6.62;100.00;103747.63;5115482;28;19916;-43
2023/12/16 05:25:32;;;;;;;;;;;;;;;6.63;100.00;103738.63;5113024;28;19978;-42
2023/12/16 05:27:57;;;;;;;;;;;;;;;6.65;100.00;103734.06;5115127;28;19924;-42
2023/12/16 05:30:23;;;;;;;;;;;;;;;6.68;100.00;103736.56;5115170;28;19931;-42
2023/12/16 05:32:48;;;;;;;;;;;;;;;6.70;100.00;103732.00;5114926;28;19927;-42
2023/12/16 05:35:14;;;;;;;;;;;;;;;6.72;100.00;103729.25;5109941;28;20370;-42
2023/12/16 05:37:40;;;;;;;;;;;;;;;6.72;100.00;103732.78;5115823;28;19971;-43
2023/12/16 05:40:05;;;;;;;;;;;;;;;6.76;100.00;103723.63;5114814;27;19919;-42
2023/12/16 05:42:30;;;;;;;;;;;;;;;6.80;100.00;103735.03;5115101;28;19923;-42
2023/12/16 05:44:56;;;;;;;;;;;;;;;6.80;100.00;103730.53;5114726;28;19923;-42
2023/12/16 05:47:21;;;;;;;;;;;;;;;6.85;100.00;103741.00;5114134;28;19930;-43
2023/12/16 05:49:46;;;;;;;;;;;;;;;6.90;100.00;103735.34;5113087;28;19923;-44
2023/12/16 05:52:11;;;;;;;;;;;;;;;6.88;100.00;103745.31;5111894;28;20285;-42
2023/12/16 05:54:36;;;;;;;;;;;;;;;6.87;100.00;103740.88;5112547;28;19916;-43
2023/12/16 05:57:02;;;;;;;;;;;;;;;6.86;100.00;103742.72;5111788;28;19969;-43
2023/12/16 05:59:28;;;;;;;;;;;;;;;6.86;100.00;103747.22;5112270;28;19916;-42
2023/12/16 06:01:53;;;;;;;;;;;;;;;6.91;100.00;103750.50;5111756;28;19928;-44
2023/12/16 06:04:18;;;;;;;;;;;;;;;6.92;100.00;103746.84;5110330;28;19924;-42
2023/12/16 06:06:43;;;;;;;;;;;;;;;6.94;100.00;103747.63;5110620;28;19942;-43
2023/12/16 06:09:09;;;;;;;;;;;;;;;6.91;100.00;103754.03;5108446;28;19923;-43
2023/12/16 06:11:34;;;;;;;;;;;;;;;6.93;100.00;103759.31;5111699;28;20634;-42
2023/12/16 06:13:59;;;;;;;;;;;;;;;6.88;100.00;103753.34;5111044;28;19939;-43
2023/12/16 06:16:24;;;;;;;;;;;;;;;6.87;100.00;103759.63;5110243;28;19965;-42
2023/12/16 06:18:50;;;;;;;;;;;;;;;6.88;100.00;103769.41;5110383;28;19920;-43
2023/12/16 06:21:15;;;;;;;;;;;;;;;6.85;100.00;103754.38;5111731;28;19931;-43
2023/12/16 06:23:40;;;;;;;;;;;;;;;6.87;100.00;103756.97;5112894;28;19957;-44
2023/12/16 06:26:05;;;;;;;;;;;;;;;6.81;100.00;103763.53;5112964;28;19934;-42
2023/12/16 06:28:31;;;;;;;;;;;;;;;6.77;100.00;103757.50;5112674;28;20067;-42
2023/12/16 06:30:56;;;;;;;;;;;;;;;6.75;100.00;103753.16;5091404;28;19920;-42
2023/12/16 06:33:24;;;;;;;;;;;;;;;6.71;100.00;103757.81;5110754;28;19924;-44
2023/12/16 06:35:49;;;;;;;;;;;;;;;6.69;100.00;103762.41;5108649;28;19982;-43
2023/12/16 06:38:15;;;;;;;;;;;;;;;6.68;100.00;103757.97;5109675;28;19920;-43
2023/12/16 06:40:40;;;;;;;;;;;;;;;6.66;100.00;103757.22;5111254;28;19919;-42
2023/12/16 06:43:05;;;;;;;;;;;;;;;6.66;100.00;103769.72;5109604;28;19928;-43
2023/12/16 06:45:31;;;;;;;;;;;;;;;6.66;100.00;103770.59;5111251;28;19947;-43
2023/12/16 06:47:57;;;;;;;;;;;;;;;6.66;100.00;103764.38;5110934;27;19923;-44
2023/12/16 06:50:22;;;;;;;;;;;;;;;6.66;100.00;103770.59;5111405;28;19931;-43
2023/12/16 06:52:47;;;;;;;;;;;;;;;6.64;100.00;103775.19;5110389;28;20534;-43
2023/12/16 06:55:12;;;;;;;;;;;;;;;6.65;100.00;103773.34;5110840;28;19924;-45
2023/12/16 06:57:38;;;;;;;;;;;;;;;6.65;100.00;103776.88;5110871;28;19919;-44
2023/12/16 07:00:03;;;;;;;;;;;;;;;6.67;100.00;103763.44;5110687;28;19977;-41
2023/12/16 07:02:28;;;;;;;;;;;;;;;6.67;100.00;103776.81;5110887;28;20031;-43
2023/12/16 07:04:53;;;;;;;;;;;;;;;6.66;100.00;103775.97;5111281;28;19988;-44
2023/12/16 07:07:19;;;;;;;;;;;;;;;6.66;100.00;103775.97;5111335;28;19928;-42
2023/12/16 07:09:44;;;;;;;;;;;;;;;6.67;100.00;103782.16;5111518;28;19923;-42
2023/12/16 07:12:09;;;;;;;;;;;;;;;6.70;100.00;103782.84;5111183;28;19923;-44
2023/12/16 07:14:34;;;;;;;;;;;;;;;6.72;100.00;103775.63;5110695;28;19920;-42
2023/12/16 07:17:00;;;;;;;;;;;;;;;6.75;100.00;103775.44;5108942;28;19924;-44
2023/12/16 07:19:25;;;;;;;;;;;;;;;6.75;100.00;103772.75;5110931;28;19965;-44
2023/12/16 07:21:50;;;;;;;;;;;;;;;6.77;100.00;103784.25;5111804;28;19920;-44
2023/12/16 07:24:15;;;;;;;;;;;;;;;6.80;100.00;103789.44;5111152;28;19919;-42
2023/12/16 07:26:41;;;;;;;;;;;;;;;6.80;100.00;103788.56;5110439;28;19920;-43
2023/12/16 07:29:06;;;;;;;;;;;;;;;6.82;100.00;103792.03;5111725;28;19962;-43
2023/12/16 07:31:31;;;;;;;;;;;;;;;6.82;100.00;103802.75;5111037;28;19958;-42
2023/12/16 07:33:57;;;;;;;;;;;;;;;6.79;100.00;103798.44;5109600;28;19950;-43
2023/12/16 07:36:22;;;;;;;;;;;;;;;6.80;100.00;103800.13;5110975;28;20285;-43
2023/12/16 07:38:47;;;;;;;;;;;;;;;6.85;100.00;103801.72;5108612;28;20006;-43
2023/12/16 07:41:12;;;;;;;;;;;;;;;6.95;100.00;103801.13;5110493;28;20076;-41
2023/12/16 07:43:38;;;;;;;;;;;;;;;6.98;100.00;103797.41;5110334;28;20018;-43
2023/12/16 07:46:04;;;;;;;;;;;;;;;7.02;100.00;103798.94;5110357;28;19927;-43
2023/12/16 07:48:29;;;;;;;;;;;;;;;7.04;100.00;103799.72;5110743;28;20392;-42
2023/12/16 07:50:54;;;;;;;;;;;;;;;7.04;100.00;103797.03;5107772;28;19922;-44
2023/12/16 07:53:20;;;;;;;;;;;;;;;7.05;100.00;103804.13;5112659;28;20370;-42
2023/12/16 07:55:45;;;;;;;;;;;;;;;7.08;100.00;103820.00;5110856;28;19950;-43
2023/12/16 07:58:10;;;;;;;;;;;;;;;7.10;100.00;103812.75;5111765;28;20115;-43
2023/12/16 08:00:36;;;;;;;;;;;;;;;7.10;100.00;103810.09;5114208;28;20001;-42
2023/12/16 08:03:01;;;;;;;;;;;;;;;7.13;100.00;103817.94;5114464;28;20007;-42
2023/12/16 08:05:26;;;;;;;;;;;;;;;7.15;100.00;103813.38;5117164;28;19947;-51
2023/12/16 08:07:51;;;;;;;;;;;;;;;7.19;100.00;103814.94;5116588;28;19942;-43
2023/12/16 08:10:17;;;;;;;;;;;;;;;7.25;100.00;103811.91;5117530;28;19920;-42
2023/12/16 08:12:42;;;;;;;;;;;;;;;7.31;100.00;103821.41;5116923;28;19919;-42
2023/12/16 08:15:08;;;;;;;;;;;;;;;7.34;100.00;103825.72;5117515;28;19973;-42
2023/12/16 08:17:33;;;;;;;;;;;;;;;7.39;100.00;103821.81;5117326;28;20347;-43
2023/12/16 08:19:59;;;;;;;;;;;;;;;7.42;100.00;103818.09;5116852;28;19959;-43
2023/12/16 08:22:25;;;;;;;;;;;;;;;7.48;100.00;103818.63;5116958;28;20377;-43
2023/12/16 08:24:50;;;;;;;;;;;;;;;7.56;100.00;103812.81;5114818;28;19912;-43
2023/12/16 08:27:15;;;;;;;;;;;;;;;7.64;100.00;103812.38;5116353;28;19960;-43
2023/12/16 08:29:40;;;;;;;;;;;;;;;7.70;100.00;103818.22;5115607;28;19956;-43
2023/12/16 08:32:06;;;;;;;;;;;;;;;7.76;100.00;103834.91;5115170;28;19920;-42
2023/12/16 08:34:33;;;;;;;;;;;;;;;7.81;100.00;103832.81;5116662;28;19999;-44
2023/12/16 08:36:58;;;;;;;;;;;;;;;7.89;100.00;103825.19;5116721;28;19962;-44
2023/12/16 08:39:24;;;;;;;;;;;;;;;7.94;100.00;103825.78;5117374;28;19911;-43
2023/12/16 08:41:49;;;;;;;;;;;;;;;7.97;100.00;103830.94;5116444;28;20010;-41
2023/12/16 08:44:14;;;;;;;;;;;;;;;7.98;100.00;103830.03;5116485;28;19915;-43
2023/12/16 08:46:40;;;;;;;;;;;;;;;8.02;100.00;103836.06;5115789;28;19991;-43
2023/12/16 08:49:05;;;;;;;;;;;;;;;8.05;100.00;103834.03;5108030;28;20014;-42
2023/12/16 08:51:31;;;;;;;;;;;;;;;8.10;100.00;103845.34;5116055;28;19968;-43
2023/12/16 08:53:56;;;;;;;;;;;;;;;8.13;100.00;103849.69;5116040;27;20011;-44
2023/12/16 08:56:21;;;;;;;;;;;;;;;8.14;100.00;103854.97;5116462;28;19916;-43
2023/12/16 08:58:47;;;;;;;;;;;;;;;8.15;100.00;103853.13;5116214;28;19961;-44
2023/12/16 09:01:12;;;;;;;;;;;;;;;8.17;100.00;103861.97;5116296;28;19923;-43
2023/12/16 09:03:40;;;;;;;;;;;;;;;8.19;100.00;103864.53;5116381;28;19923;-42
2023/12/16 09:06:06;;;;;;;;;;;;;;;8.24;100.00;103862.44;5116244;28;19930;-44
2023/12/16 09:08:32;;;;;;;;;;;;;;;8.23;100.00;103869.63;5115615;28;19920;-43
2023/12/16 09:10:57;;;;;;;;;;;;;;;8.22;100.00;103873.28;5115303;28;19920;-43
2023/12/16 09:13:22;;;;;;;;;;;;;;;8.23;100.00;103877.69;5115027;28;20434;-44
2023/12/16 09:15:48;;;;;;;;;;;;;;;8.25;100.00;103889.19;5114930;28;20417;-43
2023/12/16 09:18:13;;;;;;;;;;;;;;;8.31;100.00;103888.81;5115330;28;19916;-44
2023/12/16 09:20:38;;;;;;;;;;;;;;;8.31;100.00;103898.69;5115576;28;19916;-42
2023/12/16 09:23:03;;;;;;;;;;;;;;;8.28;100.00;103898.88;5115384;28;20286;-43
2023/12/16 09:25:28;;;;;;;;;;;;;;;8.28;100.00;103899.75;5115330;28;19919;-43
2023/12/16 09:27:54;;;;;;;;;;;;;;;8.28;100.00;103898.88;5115204;28;19920;-44
2023/12/16 09:30:19;;;;;;;;;;;;;;;8.27;100.00;103897.16;5115664;28;20383;-43
2023/12/16 09:32:47;;;;;;;;;;;;;;;8.27;100.00;103900.72;5115035;28;19916;-42
2023/12/16 09:35:12;;;;;;;;;;;;;;;8.26;100.00;103900.78;5114326;28;19919;-42
2023/12/16 09:37:38;;;;;;;;;;;;;;;8.31;100.00;103902.22;5114996;27;19916;-50
2023/12/16 09:40:03;;;;;;;;;;;;;;;8.34;100.00;103899.34;5115089;28;19912;-43
2023/12/16 09:42:29;;;;;;;;;;;;;;;8.35;100.00;103900.25;5115142;28;19915;-43
2023/12/16 09:44:55;;;;;;;;;;;;;;;8.34;100.00;103903.88;5115058;28;19969;-44
2023/12/16 09:47:20;;;;;;;;;;;;;;;8.37;100.00;103909.03;5113701;28;20353;-43
2023/12/16 09:49:45;;;;;;;;;;;;;;;8.40;100.00;103919.66;5114873;28;19916;-42
2023/12/16 09:52:10;;;;;;;;;;;;;;;8.41;100.00;103921.38;5114765;28;19915;-43
2023/12/16 09:54:37;;;;;;;;;;;;;;;8.38;100.00;103916.16;5115646;28;20583;-43
2023/12/16 09:57:02;;;;;;;;;;;;;;;8.41;100.00;103917.84;5116996;28;19937;-42
2023/12/16 09:59:27;;;;;;;;;;;;;;;8.43;100.00;103923.97;5115984;28;19943;-43
2023/12/16 10:01:53;;;;;;;;;;;;;;;8.38;100.00;103918.84;5116282;28;19916;-41
2023/12/16 10:04:19;;;;;;;;;;;;;;;8.39;100.00;103922.38;5114640;28;19968;-42
2023/12/16 10:06:45;;;;;;;;;;;;;;;8.35;100.00;103916.34;5113697;28;19916;-43
2023/12/16 10:09:10;;;;;;;;;;;;;;;8.39;100.00;103925.06;5114278;28;19923;-42
2023/12/16 10:11:39;;;;;;;;;;;;;;;8.40;100.00;103916.97;5115466;28;19923;-43
2023/12/16 10:14:05;;;;;;;;;;;;;;;8.42;100.00;103930.28;5117273;28;19985;-44
2023/12/16 10:16:30;;;;;;;;;;;;;;;8.36;100.00;103926.13;5116958;28;20013;-42
2023/12/16 10:18:56;;;;;;;;;;;;;;;8.36;100.00;103929.66;5115184;28;19976;-44
2023/12/16 10:21:30;;;;;;;;;;;;;;;8.38;100.00;103936.78;5115011;28;20303;-43
2023/12/16 10:23:56;;;;;;;;;;;;;;;8.35;100.00;103932.44;5112940;28;20393;-43
2023/12/16 10:26:21;;;;;;;;;;;;;;;8.38;100.00;103936.78;5113982;28;19916;-43
2023/12/16 10:28:47;;;;;;;;;;;;;;;8.36;100.00;103929.66;5113721;28;19938;-43
2023/12/16 10:31:13;;;;;;;;;;;;;;;8.33;100.00;103929.00;5114129;28;20026;-44
2023/12/16 10:33:38;;;;;;;;;;;;;;;8.32;100.00;103927.25;5114169;28;19915;-46
2023/12/16 10:36:03;;;;;;;;;;;;;;;8.35;100.00;103940.50;5113888;28;19915;-42
2023/12/16 10:38:28;;;;;;;;;;;;;;;8.38;100.00;103932.25;5114061;28;19920;-44
2023/12/16 10:40:54;;;;;;;;;;;;;;;8.36;100.00;103923.44;5113464;28;19916;-43
2023/12/16 10:43:19;;;;;;;;;;;;;;;8.35;100.00;103927.09;5113763;28;20289;-42
2023/12/16 10:45:45;;;;;;;;;;;;;;;8.39;100.00;103934.00;5113719;28;19942;-42
2023/12/16 10:48:11;;;;;;;;;;;;;;;8.37;100.00;103925.16;5114090;28;19961;-43
2023/12/16 10:50:40;;;;;;;;;;;;;;;8.36;100.00;103931.47;5112308;28;20587;-43
2023/12/16 10:53:05;;;;;;;;;;;;;;;8.38;100.00;103926.03;5112003;28;20388;-43
2023/12/16 10:55:34;;;;;;;;;;;;;;;8.40;100.00;103925.03;5112971;28;19916;-43
2023/12/16 10:58:26;;;;;;;;;;;;;;;8.45;100.00;103927.41;5112302;28;20003;-43
2023/12/16 11:00:54;;;;;;;;;;;;;;;8.41;100.00;103910.63;5080798;28;19923;-43
2023/12/16 11:03:28;;;;;;;;;;;;;;;8.41;100.00;103916.00;5113172;28;19919;-44
2023/12/16 11:05:58;;;;;;;;;;;;;;;8.40;100.00;103916.09;5113174;28;20008;-42
2023/12/16 11:08:24;;;;;;;;;;;;;;;8.45;100.00;103916.66;5112014;28;20422;-42
2023/12/16 11:10:49;;;;;;;;;;;;;;;8.45;100.00;103914.00;5111411;28;20002;-44
2023/12/16 11:13:14;;;;;;;;;;;;;;;8.45;100.00;103901.47;5112881;28;19994;-42
2023/12/16 11:15:40;;;;;;;;;;;;;;;8.45;100.00;103900.56;5112886;28;20024;-42
2023/12/16 11:18:15;;;;;;;;;;;;;;;8.44;100.00;103894.34;5112064;28;19942;-43
2023/12/16 11:20:42;;;;;;;;;;;;;;;8.46;100.00;103886.22;5112822;28;20390;-44
2023/12/16 11:23:09;;;;;;;;;;;;;;;8.50;100.00;103877.84;5113163;28;19916;-44
2023/12/16 11:25:34;;;;;;;;;;;;;;;8.46;100.00;103883.53;5112923;28;20331;-44
2023/12/16 11:28:00;;;;;;;;;;;;;;;8.45;100.00;103882.66;5113217;28;19946;-43
2023/12/16 11:30:26;;;;;;;;;;;;;;;8.49;100.00;103880.66;5112824;28;19922;-41
2023/12/16 11:32:55;;;;;;;;;;;;;;;8.51;100.00;103879.59;5112962;28;19950;-42
2023/12/16 11:35:35;;;;;;;;;;;;;;;8.53;100.00;103882.16;5111158;28;19964;-42
2023/12/16 11:38:01;;;;;;;;;;;;;;;8.53;100.00;103872.31;5113135;28;19926;-43
2023/12/16 11:40:42;;;;;;;;;;;;;;;8.54;100.00;103865.97;5112660;28;19915;-43
2023/12/16 11:43:08;;;;;;;;;;;;;;;8.56;100.00;103869.44;5128565;27;20274;-44
2023/12/16 11:45:40;;;;;;;;;;;;;;;8.59;100.00;103859.47;5112506;28;20007;-42
2023/12/16 11:48:06;;;;;;;;;;;;;;;8.61;100.00;103863.81;5112759;28;19916;-43
2023/12/16 11:50:32;;;;;;;;;;;;;;;8.63;100.00;103867.22;5112881;28;19920;-43
2023/12/16 11:52:57;;;;;;;;;;;;;;;8.63;100.00;103852.94;5112582;28;20262;-43
2023/12/16 11:55:22;;;;;;;;;;;;;;;8.65;100.00;103854.56;5111741;28;19966;-43
2023/12/16 11:57:48;;;;;;;;;;;;;;;8.64;100.00;103863.59;5111498;28;19912;-43
2023/12/16 12:00:17;;;;;;;;;;;;;;;8.64;100.00;103857.38;5110955;28;19916;-42
2023/12/16 12:02:43;;;;;;;;;;;;;;;8.68;100.00;103859.75;5112197;28;20259;-43
2023/12/16 12:05:11;;;;;;;;;;;;;;;8.70;100.00;103846.25;5112881;28;20006;-43
2023/12/16 12:07:36;;;;;;;;;;;;;;;8.69;100.00;103849.88;5112312;28;20274;-42
2023/12/16 12:10:02;;;;;;;;;;;;;;;8.69;100.00;103844.50;5112213;28;19926;-44
2023/12/16 12:12:27;;;;;;;;;;;;;;;8.73;100.00;103838.00;5112223;28;20261;-44
2023/12/16 12:14:52;;;;;;;;;;;;;;;8.71;100.00;103842.59;5112676;28;19935;-44
2023/12/16 12:17:17;;;;;;;;;;;;;;;8.75;100.00;103833.41;5110105;28;19928;-41
2023/12/16 12:19:43;;;;;;;;;;;;;;;8.78;100.00;103838.56;5111624;28;19945;-45
2023/12/16 12:22:08;;;;;;;;;;;;;;;8.74;100.00;103837.03;5111344;28;19970;-44
2023/12/16 12:24:33;;;;;;;;;;;;;;;8.72;100.00;103825.53;5111878;28;20452;-44
2023/12/16 12:26:59;;;;;;;;;;;;;;;8.70;100.00;103820.25;5107144;28;20286;-44